Terminal Aerodrome Forecast
Issued by NWS

Home | Current Version | Previous Version | Text Only | Print | Product List | Glossary On
Versions: 1 2 3 4 5 6 7 8 9 10 11 12 13 14 15 16 17 18 19 20 21 22 23 24 25 26 27 28
000
FTUS41 KBUF 101720
TAFJHW
TAF
KJHW 101720Z 1018/1118 25013G20KT 1/2SM SN OVC007
     FM102200 25007KT 1/2SM SN OVC007
     FM110100 24006KT 2SM -SN OVC025
     FM110300 23008KT P6SM OVC040
     FM111000 20007KT P6SM VCSH OVC040
     FM111300 19007KT 2SM -SN OVC035
      AMD LTD TO CLD VIS AND WIND=

USA.gov is the U.S. government's official web portal to all federal, state and local government web resources and services.